sensor_id;sensor_type;location;lat;lon;timestamp;pressure;altitude;pressure_sealevel;temperature;humidity
7337;BME280;54510;42.016;23.098;2022-12-18T00:02:04;-21576.66;;;16.11;72.55
7337;BME280;54510;42.016;23.098;2022-12-18T00:04:30;-21585.34;;;16.43;71.67
7337;BME280;54510;42.016;23.098;2022-12-18T00:06:55;-21587.53;;;16.51;70.59
7337;BME280;54510;42.016;23.098;2022-12-18T00:09:21;-21590.03;;;16.60;69.18
7337;BME280;54510;42.016;23.098;2022-12-18T00:11:47;-21591.66;;;16.66;68.41
7337;BME280;54510;42.016;23.098;2022-12-18T00:14:13;-21589.75;;;16.59;68.86
7337;BME280;54510;42.016;23.098;2022-12-18T00:16:39;-21584.22;;;16.39;68.61
7337;BME280;54510;42.016;23.098;2022-12-18T00:19:05;-21579.69;;;16.22;68.99
7337;BME280;54510;42.016;23.098;2022-12-18T00:21:32;-21577.88;;;16.15;69.66
7337;BME280;54510;42.016;23.098;2022-12-18T00:23:58;-21578.16;;;16.16;69.67
7337;BME280;54510;42.016;23.098;2022-12-18T00:26:27;-21582.28;;;16.32;69.33
7337;BME280;54510;42.016;23.098;2022-12-18T00:28:53;-21583.81;;;16.37;68.79
7337;BME280;54510;42.016;23.098;2022-12-18T00:31:21;-21571.28;;;15.91;69.41
7337;BME280;54510;42.016;23.098;2022-12-18T00:33:47;-21566.72;;;15.74;70.38
7337;BME280;54510;42.016;23.098;2022-12-18T00:36:18;-21574.44;;;16.03;69.24
7337;BME280;54510;42.016;23.098;2022-12-18T00:38:45;-21578.44;;;16.17;68.82
7337;BME280;54510;42.016;23.098;2022-12-18T00:41:12;-21581.88;;;16.30;68.81
7337;BME280;54510;42.016;23.098;2022-12-18T00:43:38;-21585.59;;;16.44;68.49
7337;BME280;54510;42.016;23.098;2022-12-18T00:46:05;-21583.69;;;16.37;67.66
7337;BME280;54510;42.016;23.098;2022-12-18T00:48:30;-21579.97;;;16.23;68.48
7337;BME280;54510;42.016;23.098;2022-12-18T00:50:56;-21582.28;;;16.32;68.45
7337;BME280;54510;42.016;23.098;2022-12-18T00:53:21;-21584.66;;;16.40;67.92
7337;BME280;54510;42.016;23.098;2022-12-18T00:55:47;-21590.44;;;16.62;67.52
7337;BME280;54510;42.016;23.098;2022-12-18T00:58:14;-21592.22;;;16.68;66.70
7337;BME280;54510;42.016;23.098;2022-12-18T01:00:40;-21592.09;;;16.68;66.72
7337;BME280;54510;42.016;23.098;2022-12-18T01:03:06;-21592.78;;;16.70;66.82
7337;BME280;54510;42.016;23.098;2022-12-18T01:05:32;-21589.75;;;16.59;66.99
7337;BME280;54510;42.016;23.098;2022-12-18T01:07:58;-21587.25;;;16.50;66.81
7337;BME280;54510;42.016;23.098;2022-12-18T01:10:24;-21589.19;;;16.57;66.97
7337;BME280;54510;42.016;23.098;2022-12-18T01:12:49;-21582.56;;;16.33;67.17
7337;BME280;54510;42.016;23.098;2022-12-18T01:15:15;-21577.47;;;16.14;68.11
7337;BME280;54510;42.016;23.098;2022-12-18T01:17:41;-21576.38;;;16.10;68.33
7337;BME280;54510;42.016;23.098;2022-12-18T01:20:07;-21577.47;;;16.14;68.06
7337;BME280;54510;42.016;23.098;2022-12-18T01:22:34;-21581.19;;;16.28;68.35
7337;BME280;54510;42.016;23.098;2022-12-18T01:24:59;-21582.84;;;16.34;68.18
7337;BME280;54510;42.016;23.098;2022-12-18T01:27:25;-21586.16;;;16.46;68.26
7337;BME280;54510;42.016;23.098;2022-12-18T01:29:51;-21581.75;;;16.30;68.70
7337;BME280;54510;42.016;23.098;2022-12-18T01:32:16;-21586.28;;;16.46;68.54
7337;BME280;54510;42.016;23.098;2022-12-18T01:34:41;-21584.38;;;16.39;68.60
7337;BME280;54510;42.016;23.098;2022-12-18T01:37:07;-21585.75;;;16.44;68.29
7337;BME280;54510;42.016;23.098;2022-12-18T01:39:34;-21587.66;;;16.51;68.16
7337;BME280;54510;42.016;23.098;2022-12-18T01:42:05;-21587.81;;;16.52;68.02
7337;BME280;54510;42.016;23.098;2022-12-18T01:47:24;-21588.38;;;16.54;68.03
7337;BME280;54510;42.016;23.098;2022-12-18T01:49:50;-21587.25;;;16.50;68.47
7337;BME280;54510;42.016;23.098;2022-12-18T01:52:16;-21589.31;;;16.57;68.48
7337;BME280;54510;42.016;23.098;2022-12-18T01:54:43;-21582.03;;;16.31;69.20
7337;BME280;54510;42.016;23.098;2022-12-18T01:57:09;-21580.09;;;16.24;69.49
7337;BME280;54510;42.016;23.098;2022-12-18T01:59:35;-21578.72;;;16.18;69.13
7337;BME280;54510;42.016;23.098;2022-12-18T02:02:02;-21579.00;;;16.19;69.41
7337;BME280;54510;42.016;23.098;2022-12-18T02:04:28;-21577.63;;;16.14;69.59
7337;BME280;54510;42.016;23.098;2022-12-18T02:07:06;-21582.03;;;16.31;69.08
7337;BME280;54510;42.016;23.098;2022-12-18T02:09:40;-21582.44;;;16.32;68.45
7337;BME280;54510;42.016;23.098;2022-12-18T02:12:44;-21588.38;;;16.54;68.06
7337;BME280;54510;42.016;23.098;2022-12-18T02:15:29;-21582.44;;;16.32;67.89
7337;BME280;54510;42.016;23.098;2022-12-18T02:18:09;-21579.53;;;16.22;68.32
7337;BME280;54510;42.016;23.098;2022-12-18T02:20:47;-21580.66;;;16.26;68.35
7337;BME280;54510;42.016;23.098;2022-12-18T02:23:39;-21582.56;;;16.33;67.77
7337;BME280;54510;42.016;23.098;2022-12-18T02:26:10;-21586.03;;;16.45;67.78
7337;BME280;54510;42.016;23.098;2022-12-18T02:28:48;-21587.13;;;16.49;67.25
7337;BME280;54510;42.016;23.098;2022-12-18T02:31:21;-21585.75;;;16.44;67.57
7337;BME280;54510;42.016;23.098;2022-12-18T02:33:50;-21583.81;;;16.37;67.58
7337;BME280;54510;42.016;23.098;2022-12-18T02:36:18;-21572.09;;;15.94;66.83
7337;BME280;54510;42.016;23.098;2022-12-18T02:38:45;-21562.44;;;15.59;67.41
7337;BME280;54510;42.016;23.098;2022-12-18T02:41:13;-21566.84;;;15.75;66.94
7337;BME280;54510;42.016;23.098;2022-12-18T02:43:42;-21569.63;;;15.85;65.97
7337;BME280;54510;42.016;23.098;2022-12-18T02:46:44;-21571.53;;;15.92;65.75
7337;BME280;54510;42.016;23.098;2022-12-18T02:52:12;-21572.78;;;15.97;65.05
7337;BME280;54510;42.016;23.098;2022-12-18T02:57:35;-21577.19;;;16.13;66.73
7337;BME280;54510;42.016;23.098;2022-12-18T03:00:16;-21573.34;;;15.99;67.76
7337;BME280;54510;42.016;23.098;2022-12-18T03:02:48;-21571.81;;;15.93;68.77
7337;BME280;54510;42.016;23.098;2022-12-18T03:05:30;-21580.09;;;16.24;68.24
7337;BME280;54510;42.016;23.098;2022-12-18T03:08:01;-21578.44;;;16.17;68.15
7337;BME280;54510;42.016;23.098;2022-12-18T03:10:31;-21582.03;;;16.31;67.57
7337;BME280;54510;42.016;23.098;2022-12-18T03:13:04;-21579.69;;;16.22;68.17
7337;BME280;54510;42.016;23.098;2022-12-18T03:15:47;-21576.25;;;16.09;68.48
7337;BME280;54510;42.016;23.098;2022-12-18T03:18:25;-21577.47;;;16.14;68.24
7337;BME280;54510;42.016;23.098;2022-12-18T03:20:53;-21579.53;;;16.22;67.92
7337;BME280;54510;42.016;23.098;2022-12-18T03:23:23;-21582.44;;;16.32;66.88
7337;BME280;54510;42.016;23.098;2022-12-18T03:25:54;-21573.19;;;15.98;65.17
7337;BME280;54510;42.016;23.098;2022-12-18T03:28:22;-21575.81;;;16.08;64.61
7337;BME280;54510;42.016;23.098;2022-12-18T03:30:55;-21563.00;;;15.61;63.59
7337;BME280;54510;42.016;23.098;2022-12-18T03:33:28;-21561.88;;;15.57;64.17
7337;BME280;54510;42.016;23.098;2022-12-18T03:35:55;-21560.78;;;15.53;63.44
7337;BME280;54510;42.016;23.098;2022-12-18T03:38:21;-21552.78;;;15.23;63.89
7337;BME280;54510;42.016;23.098;2022-12-18T03:41:19;-21556.66;;;15.37;63.59
7337;BME280;54510;42.016;23.098;2022-12-18T03:43:58;-21561.47;;;15.55;62.74
7337;BME280;54510;42.016;23.098;2022-12-18T03:49:11;-21554.56;;;15.30;63.35
7337;BME280;54510;42.016;23.098;2022-12-18T03:51:51;-21556.50;;;15.37;62.99
7337;BME280;54510;42.016;23.098;2022-12-18T03:54:18;-21550.56;;;15.15;63.05
7337;BME280;54510;42.016;23.098;2022-12-18T03:56:53;-21548.38;;;15.07;63.15
7337;BME280;54510;42.016;23.098;2022-12-18T03:59:21;-21549.31;;;15.11;63.34
7337;BME280;54510;42.016;23.098;2022-12-18T04:01:49;-21554.16;;;15.28;62.89
7337;BME280;54510;42.016;23.098;2022-12-18T04:04:18;-21556.09;;;15.35;62.55
7337;BME280;54510;42.016;23.098;2022-12-18T04:06:46;-21550.16;;;15.14;62.53
7337;BME280;54510;42.016;23.098;2022-12-18T04:09:13;-21551.81;;;15.20;62.38
7337;BME280;54510;42.016;23.098;2022-12-18T04:11:42;-21547.25;;;15.03;61.44
7337;BME280;54510;42.016;23.098;2022-12-18T04:14:10;-21554.72;;;15.30;61.37
7337;BME280;54510;42.016;23.098;2022-12-18T04:16:36;-21561.75;;;15.56;60.82
7337;BME280;54510;42.016;23.098;2022-12-18T04:19:02;-21556.09;;;15.35;60.14
7337;BME280;54510;42.016;23.098;2022-12-18T04:21:27;-21550.56;;;15.15;60.99
7337;BME280;54510;42.016;23.098;2022-12-18T04:23:53;-21538.56;;;14.71;61.25
7337;BME280;54510;42.016;23.098;2022-12-18T04:26:18;-21538.41;;;14.71;61.38
7337;BME280;54510;42.016;23.098;2022-12-18T04:28:44;-21531.66;;;14.46;61.86
7337;BME280;54510;42.016;23.098;2022-12-18T04:31:09;-21534.41;;;14.56;62.59
7337;BME280;54510;42.016;23.098;2022-12-18T04:33:34;-21535.09;;;14.58;62.02
7337;BME280;54510;42.016;23.098;2022-12-18T04:36:00;-21547.53;;;15.04;60.91
7337;BME280;54510;42.016;23.098;2022-12-18T04:38:25;-21547.13;;;15.02;60.01
7337;BME280;54510;42.016;23.098;2022-12-18T04:40:51;-21552.38;;;15.22;60.00
7337;BME280;54510;42.016;23.098;2022-12-18T04:43:16;-21541.47;;;14.82;61.23
7337;BME280;54510;42.016;23.098;2022-12-18T04:45:42;-21537.31;;;14.67;61.04
7337;BME280;54510;42.016;23.098;2022-12-18T04:48:07;-21531.78;;;14.46;61.64
7337;BME280;54510;42.016;23.098;2022-12-18T04:50:32;-21523.78;;;14.17;61.80
7337;BME280;54510;42.016;23.098;2022-12-18T04:52:58;-21532.22;;;14.48;61.87
7337;BME280;54510;42.016;23.098;2022-12-18T04:55:23;-21542.44;;;14.85;60.72
7337;BME280;54510;42.016;23.098;2022-12-18T04:57:49;-21531.94;;;14.47;60.74
7337;BME280;54510;42.016;23.098;2022-12-18T05:00:14;-21527.91;;;14.32;60.76
7337;BME280;54510;42.016;23.098;2022-12-18T05:02:40;-21526.25;;;14.26;60.94
7337;BME280;54510;42.016;23.098;2022-12-18T05:05:06;-21520.59;;;14.05;61.68
7337;BME280;54510;42.016;23.098;2022-12-18T05:07:31;-21525.16;;;14.22;61.16
7337;BME280;54510;42.016;23.098;2022-12-18T05:09:57;-21526.41;;;14.27;61.32
7337;BME280;54510;42.016;23.098;2022-12-18T05:12:22;-21519.06;;;14.00;61.34
7337;BME280;54510;42.016;23.098;2022-12-18T05:14:47;-21516.44;;;13.90;61.34
7337;BME280;54510;42.016;23.098;2022-12-18T05:17:13;-21518.66;;;13.98;60.64
7337;BME280;54510;42.016;23.098;2022-12-18T05:19:38;-21519.91;;;14.03;60.46
7337;BME280;54510;42.016;23.098;2022-12-18T05:22:03;-21509.41;;;13.64;61.24
7337;BME280;54510;42.016;23.098;2022-12-18T05:24:29;-21515.06;;;13.85;61.34
7337;BME280;54510;42.016;23.098;2022-12-18T05:26:54;-21504.69;;;13.47;61.38
7337;BME280;54510;42.016;23.098;2022-12-18T05:29:20;-21488.91;;;12.89;62.67
7337;BME280;54510;42.016;23.098;2022-12-18T05:31:45;-21508.97;;;13.63;62.07
7337;BME280;54510;42.016;23.098;2022-12-18T05:34:10;-21516.03;;;13.89;60.25
7337;BME280;54510;42.016;23.098;2022-12-18T05:36:36;-21519.06;;;14.00;59.54
7337;BME280;54510;42.016;23.098;2022-12-18T05:39:01;-21499.16;;;13.27;59.92
7337;BME280;54510;42.016;23.098;2022-12-18T05:41:27;-21512.44;;;13.75;59.72
7337;BME280;54510;42.016;23.098;2022-12-18T05:43:52;-21506.34;;;13.53;59.40
7337;BME280;54510;42.016;23.098;2022-12-18T05:46:18;-21510.91;;;13.70;59.74
7337;BME280;54510;42.016;23.098;2022-12-18T05:48:44;-21505.78;;;13.51;59.61
7337;BME280;54510;42.016;23.098;2022-12-18T05:51:12;-21516.31;;;13.90;59.41
7337;BME280;54510;42.016;23.098;2022-12-18T05:53:38;-21523.78;;;14.17;58.93
7337;BME280;54510;42.016;23.098;2022-12-18T05:56:06;-21518.25;;;13.97;58.17
7337;BME280;54510;42.016;23.098;2022-12-18T05:58:32;-21522.53;;;14.12;57.98
7337;BME280;54510;42.016;23.098;2022-12-18T06:01:06;-21520.31;;;14.04;58.16
7337;BME280;54510;42.016;23.098;2022-12-18T06:03:32;-21513.41;;;13.79;57.76
7337;BME280;54510;42.016;23.098;2022-12-18T06:05:57;-21513.53;;;13.79;58.31
7337;BME280;54510;42.016;23.098;2022-12-18T06:08:22;-21515.06;;;13.85;58.41
7337;BME280;54510;42.016;23.098;2022-12-18T06:10:51;-21510.22;;;13.67;58.19
7337;BME280;54510;42.016;23.098;2022-12-18T06:13:18;-21511.59;;;13.72;58.20
7337;BME280;54510;42.016;23.098;2022-12-18T06:15:43;-21519.91;;;14.03;57.79
7337;BME280;54510;42.016;23.098;2022-12-18T06:18:09;-21513.81;;;13.80;57.97
7337;BME280;54510;42.016;23.098;2022-12-18T06:20:34;-21516.88;;;13.92;58.51
7337;BME280;54510;42.016;23.098;2022-12-18T06:23:01;-21513.53;;;13.79;58.22
7337;BME280;54510;42.016;23.098;2022-12-18T06:25:27;-21513.13;;;13.78;58.32
7337;BME280;54510;42.016;23.098;2022-12-18T06:27:52;-21507.19;;;13.56;59.45
7337;BME280;54510;42.016;23.098;2022-12-18T06:30:18;-21515.06;;;13.85;58.70
7337;BME280;54510;42.016;23.098;2022-12-18T06:32:43;-21520.72;;;14.06;57.97
7337;BME280;54510;42.016;23.098;2022-12-18T06:35:09;-21520.31;;;14.04;57.98
7337;BME280;54510;42.016;23.098;2022-12-18T06:37:35;-21506.91;;;13.55;58.80
7337;BME280;54510;42.016;23.098;2022-12-18T06:40:00;-21517.69;;;13.95;58.33
7337;BME280;54510;42.016;23.098;2022-12-18T06:42:26;-21520.03;;;14.03;57.83
7337;BME280;54510;42.016;23.098;2022-12-18T06:44:51;-21523.63;;;14.16;57.41
7337;BME280;54510;42.016;23.098;2022-12-18T06:47:17;-21521.00;;;14.07;57.04
7337;BME280;54510;42.016;23.098;2022-12-18T06:49:43;-21510.63;;;13.69;57.60
7337;BME280;54510;42.016;23.098;2022-12-18T06:52:08;-21510.22;;;13.67;57.95
7337;BME280;54510;42.016;23.098;2022-12-18T06:54:34;-21519.06;;;14.00;57.38
7337;BME280;54510;42.016;23.098;2022-12-18T06:56:59;-21500.81;;;13.33;58.76
7337;BME280;54510;42.016;23.098;2022-12-18T06:59:24;-21510.50;;;13.68;58.29
7337;BME280;54510;42.016;23.098;2022-12-18T07:01:50;-21506.34;;;13.53;57.67
7337;BME280;54510;42.016;23.098;2022-12-18T07:04:15;-21510.91;;;13.70;57.69
7337;BME280;54510;42.016;23.098;2022-12-18T07:06:41;-21508.97;;;13.63;57.30
7337;BME280;54510;42.016;23.098;2022-12-18T07:09:07;-21513.25;;;13.78;57.39
7337;BME280;54510;42.016;23.098;2022-12-18T07:11:33;-21512.44;;;13.75;57.25
7337;BME280;54510;42.016;23.098;2022-12-18T07:13:59;-21513.25;;;13.78;56.94
7337;BME280;54510;42.016;23.098;2022-12-18T07:16:24;-21495.84;;;13.15;57.86
7337;BME280;54510;42.016;23.098;2022-12-18T07:18:50;-21507.47;;;13.57;57.13
7337;BME280;54510;42.016;23.098;2022-12-18T07:21:17;-21506.50;;;13.54;57.43
7337;BME280;54510;42.016;23.098;2022-12-18T07:23:43;-21497.91;;;13.22;57.70
7337;BME280;54510;42.016;23.098;2022-12-18T07:26:13;-21490.84;;;12.96;58.48
7337;BME280;54510;42.016;23.098;2022-12-18T07:28:39;-21486.16;;;12.79;58.51
7337;BME280;54510;42.016;23.098;2022-12-18T07:31:08;-21481.84;;;12.63;59.25
7337;BME280;54510;42.016;23.098;2022-12-18T07:33:34;-21485.59;;;12.77;58.51
7337;BME280;54510;42.016;23.098;2022-12-18T07:36:04;-21490.84;;;12.96;57.68
7337;BME280;54510;42.016;23.098;2022-12-18T07:38:30;-21476.72;;;12.45;59.21
7337;BME280;54510;42.016;23.098;2022-12-18T07:43:32;-21475.06;;;12.39;59.40
7337;BME280;54510;42.016;23.098;2022-12-18T07:45:58;-21477.69;;;12.48;59.19
7337;BME280;54510;42.016;23.098;2022-12-18T07:48:23;-21483.09;;;12.68;58.92
7337;BME280;54510;42.016;23.098;2022-12-18T07:50:49;-21486.69;;;12.81;58.39
7337;BME280;54510;42.016;23.098;2022-12-18T07:53:14;-21476.44;;;12.44;58.70
7337;BME280;54510;42.016;23.098;2022-12-18T07:55:40;-21481.31;;;12.61;58.34
7337;BME280;54510;42.016;23.098;2022-12-18T07:58:06;-21487.13;;;12.83;58.03
7337;BME280;54510;42.016;23.098;2022-12-18T08:00:32;-21483.94;;;12.71;58.51
7337;BME280;54510;42.016;23.098;2022-12-18T08:02:57;-21488.50;;;12.88;57.82
7337;BME280;54510;42.016;23.098;2022-12-18T08:05:23;-21486.00;;;12.79;58.72
7337;BME280;54510;42.016;23.098;2022-12-18T08:07:48;-21496.94;;;13.19;57.29
7337;BME280;54510;42.016;23.098;2022-12-18T08:10:14;-21507.19;;;13.56;56.65
7337;BME280;54510;42.016;23.098;2022-12-18T08:12:39;-21505.94;;;13.52;56.33
7337;BME280;54510;42.016;23.098;2022-12-18T08:15:05;-21505.25;;;13.49;56.78
7337;BME280;54510;42.016;23.098;2022-12-18T08:17:30;-21497.50;;;13.21;57.14
7337;BME280;54510;42.016;23.098;2022-12-18T08:19:56;-21502.19;;;13.38;56.54
7337;BME280;54510;42.016;23.098;2022-12-18T08:22:21;-21499.72;;;13.29;55.82
7337;BME280;54510;42.016;23.098;2022-12-18T08:24:47;-21499.56;;;13.28;56.74
7337;BME280;54510;42.016;23.098;2022-12-18T08:27:12;-21483.66;;;12.70;57.25
7337;BME280;54510;42.016;23.098;2022-12-18T08:29:37;-21483.09;;;12.68;57.54
7337;BME280;54510;42.016;23.098;2022-12-18T08:32:03;-21491.97;;;13.00;56.92
7337;BME280;54510;42.016;23.098;2022-12-18T08:34:29;-21488.34;;;12.87;57.16
7337;BME280;54510;42.016;23.098;2022-12-18T08:36:54;-21490.44;;;12.95;57.00
7337;BME280;54510;42.016;23.098;2022-12-18T08:39:19;-21496.25;;;13.16;56.47
7337;BME280;54510;42.016;23.098;2022-12-18T08:41:45;-21507.19;;;13.56;56.06
7337;BME280;54510;42.016;23.098;2022-12-18T08:44:30;-21510.50;;;13.68;55.07
7337;BME280;54510;42.016;23.098;2022-12-18T08:47:05;-21502.63;;;13.39;55.72
7337;BME280;54510;42.016;23.098;2022-12-18T08:49:32;-21511.75;;;13.73;54.50
7337;BME280;54510;42.016;23.098;2022-12-18T08:51:57;-21517.81;;;13.95;54.57
7337;BME280;54510;42.016;23.098;2022-12-18T08:54:23;-21526.81;;;14.28;53.51
7337;BME280;54510;42.016;23.098;2022-12-18T08:56:49;-21501.66;;;13.36;55.76
7337;BME280;54510;42.016;23.098;2022-12-18T08:59:19;-21512.56;;;13.76;54.11
7337;BME280;54510;42.016;23.098;2022-12-18T09:01:45;-21516.31;;;13.90;54.27
7337;BME280;54510;42.016;23.098;2022-12-18T09:04:10;-21493.63;;;13.06;54.94
7337;BME280;54510;42.016;23.098;2022-12-18T09:06:36;-21496.25;;;13.16;54.80
7337;BME280;54510;42.016;23.098;2022-12-18T09:09:04;-21488.91;;;12.89;55.42
7337;BME280;54510;42.016;23.098;2022-12-18T09:11:31;-21492.78;;;13.03;55.40
7337;BME280;54510;42.016;23.098;2022-12-18T09:13:57;-21510.38;;;13.68;54.31
7337;BME280;54510;42.016;23.098;2022-12-18T09:16:24;-21508.28;;;13.60;54.70
7337;BME280;54510;42.016;23.098;2022-12-18T09:18:50;-21508.69;;;13.62;53.96
7337;BME280;54510;42.016;23.098;2022-12-18T09:21:18;-21518.66;;;13.98;52.93
7337;BME280;54510;42.016;23.098;2022-12-18T09:23:44;-21516.03;;;13.89;53.27
7337;BME280;54510;42.016;23.098;2022-12-18T09:26:09;-21519.34;;;14.01;52.45
7337;BME280;54510;42.016;23.098;2022-12-18T09:28:35;-21519.06;;;14.00;53.07
7337;BME280;54510;42.016;23.098;2022-12-18T09:31:06;-21519.91;;;14.03;52.43
7337;BME280;54510;42.016;23.098;2022-12-18T09:33:33;-21520.03;;;14.03;52.68
7337;BME280;54510;42.016;23.098;2022-12-18T09:36:01;-21498.59;;;13.25;53.92
7337;BME280;54510;42.016;23.098;2022-12-18T09:38:27;-21498.31;;;13.24;54.12
7337;BME280;54510;42.016;23.098;2022-12-18T09:40:56;-21494.72;;;13.11;53.58
7337;BME280;54510;42.016;23.098;2022-12-18T09:43:37;-21497.34;;;13.20;53.63
7337;BME280;54510;42.016;23.098;2022-12-18T09:46:09;-21492.78;;;13.03;53.89
7337;BME280;54510;42.016;23.098;2022-12-18T09:48:39;-21507.03;;;13.56;52.81
7337;BME280;54510;42.016;23.098;2022-12-18T09:51:17;-21511.75;;;13.73;52.44
7337;BME280;54510;42.016;23.098;2022-12-18T09:53:47;-21495.28;;;13.13;53.25
7337;BME280;54510;42.016;23.098;2022-12-18T09:56:18;-21504.69;;;13.47;52.38
7337;BME280;54510;42.016;23.098;2022-12-18T09:58:50;-21503.72;;;13.43;52.40
7337;BME280;54510;42.016;23.098;2022-12-18T10:01:27;-21500.25;;;13.31;53.04
7337;BME280;54510;42.016;23.098;2022-12-18T10:03:53;-21522.94;;;14.14;51.53
7337;BME280;54510;42.016;23.098;2022-12-18T10:08:59;-21511.34;;;13.71;52.45
7337;BME280;54510;42.016;23.098;2022-12-18T10:11:40;-21531.94;;;14.47;50.86
7337;BME280;54510;42.016;23.098;2022-12-18T10:25:15;-21519.91;;;14.03;51.15
7337;BME280;54510;42.016;23.098;2022-12-18T10:27:42;-21527.78;;;14.32;51.13
7337;BME280;54510;42.016;23.098;2022-12-18T10:30:19;-21546.56;;;15.00;49.20
7337;BME280;54510;42.016;23.098;2022-12-18T10:32:45;-21547.25;;;15.03;49.16
7337;BME280;54510;42.016;23.098;2022-12-18T10:37:59;-21526.81;;;14.28;50.58
7337;BME280;54510;42.016;23.098;2022-12-18T10:40:26;-21517.13;;;13.93;50.48
7337;BME280;54510;42.016;23.098;2022-12-18T10:43:36;-21543.25;;;14.88;49.64
7337;BME280;54510;42.016;23.098;2022-12-18T10:46:11;-21538.69;;;14.72;49.94
7337;BME280;54510;42.016;23.098;2022-12-18T10:48:49;-21543.41;;;14.89;49.07
7337;BME280;54510;42.016;23.098;2022-12-18T10:51:33;-21548.91;;;15.09;48.41
7337;BME280;54510;42.016;23.098;2022-12-18T10:54:03;-21555.13;;;15.32;48.16
7337;BME280;54510;42.016;23.098;2022-12-18T10:56:29;-21559.69;;;15.49;47.50
7337;BME280;54510;42.016;23.098;2022-12-18T10:58:57;-21549.47;;;15.11;48.42
7337;BME280;54510;42.016;23.098;2022-12-18T11:01:22;-21558.31;;;15.43;48.92
7337;BME280;54510;42.016;23.098;2022-12-18T11:06:20;-21552.38;;;15.22;49.35
7337;BME280;54510;42.016;23.098;2022-12-18T11:11:24;-21529.84;;;14.39;50.93
7337;BME280;54510;42.016;23.098;2022-12-18T11:13:52;-21534.84;;;14.57;51.23
7337;BME280;54510;42.016;23.098;2022-12-18T11:16:21;-21534.13;;;14.55;51.11
7337;BME280;54510;42.016;23.098;2022-12-18T11:18:46;-21544.22;;;14.92;49.68
7337;BME280;54510;42.016;23.098;2022-12-18T11:21:11;-21536.06;;;14.62;51.02
7337;BME280;54510;42.016;23.098;2022-12-18T11:23:44;-21543.13;;;14.88;51.04
7337;BME280;54510;42.016;23.098;2022-12-18T11:26:10;-21529.03;;;14.36;51.45
7337;BME280;54510;42.016;23.098;2022-12-18T11:28:36;-21530.69;;;14.42;51.85
7337;BME280;54510;42.016;23.098;2022-12-18T11:31:24;-21547.13;;;15.02;51.04
7337;BME280;54510;42.016;23.098;2022-12-18T11:34:01;-21543.25;;;14.88;50.90
7337;BME280;54510;42.016;23.098;2022-12-18T11:36:30;-21526.69;;;14.28;51.89
7337;BME280;54510;42.016;23.098;2022-12-18T11:38:58;-21534.97;;;14.58;51.21
7337;BME280;54510;42.016;23.098;2022-12-18T11:41:29;-21532.91;;;14.50;50.81
7337;BME280;54510;42.016;23.098;2022-12-18T11:44:31;-21528.19;;;14.33;50.80
7337;BME280;54510;42.016;23.098;2022-12-18T11:47:01;-21527.66;;;14.31;50.72
7337;BME280;54510;42.016;23.098;2022-12-18T11:49:29;-21526.41;;;14.27;51.36
7337;BME280;54510;42.016;23.098;2022-12-18T11:52:04;-21532.34;;;14.48;50.75
7337;BME280;54510;42.016;23.098;2022-12-18T11:54:32;-21539.81;;;14.76;50.06
7337;BME280;54510;42.016;23.098;2022-12-18T11:59:43;-21521.28;;;14.08;51.02
7337;BME280;54510;42.016;23.098;2022-12-18T12:02:33;-21520.59;;;14.05;51.30
7337;BME280;54510;42.016;23.098;2022-12-18T12:10:31;-21503.03;;;13.41;52.93
7337;BME280;54510;42.016;23.098;2022-12-18T12:15:25;-21520.31;;;14.04;51.82
7337;BME280;54510;42.016;23.098;2022-12-18T12:25:45;-21500.13;;;13.30;52.75
7337;BME280;54510;42.016;23.098;2022-12-18T12:30:59;-21514.38;;;13.82;51.87
7337;BME280;54510;42.016;23.098;2022-12-18T12:38:46;-21509.66;;;13.65;52.75
7337;BME280;54510;42.016;23.098;2022-12-18T12:41:16;-21507.19;;;13.56;52.41
7337;BME280;54510;42.016;23.098;2022-12-18T12:44:02;-21501.22;;;13.34;52.96
7337;BME280;54510;42.016;23.098;2022-12-18T12:46:31;-21513.53;;;13.79;51.82
7337;BME280;54510;42.016;23.098;2022-12-18T12:49:01;-21496.66;;;13.18;52.66
7337;BME280;54510;42.016;23.098;2022-12-18T12:51:29;-21502.63;;;13.39;52.79
7337;BME280;54510;42.016;23.098;2022-12-18T12:53:57;-21492.25;;;13.01;52.87
7337;BME280;54510;42.016;23.098;2022-12-18T12:56:24;-21497.78;;;13.22;52.12
7337;BME280;54510;42.016;23.098;2022-12-18T13:01:27;-21501.38;;;13.35;51.78
7337;BME280;54510;42.016;23.098;2022-12-18T13:06:27;-21491.69;;;12.99;52.81
7337;BME280;54510;42.016;23.098;2022-12-18T13:08:58;-21502.91;;;13.40;51.67
7337;BME280;54510;42.016;23.098;2022-12-18T13:14:24;-21492.25;;;13.01;51.65
7337;BME280;54510;42.016;23.098;2022-12-18T13:16:51;-21500.53;;;13.32;51.38
7337;BME280;54510;42.016;23.098;2022-12-18T13:19:23;-21503.88;;;13.44;50.75
7337;BME280;54510;42.016;23.098;2022-12-18T13:21:54;-21520.47;;;14.05;49.82
7337;BME280;54510;42.016;23.098;2022-12-18T13:24:30;-21502.47;;;13.39;50.42
7337;BME280;54510;42.016;23.098;2022-12-18T13:26:55;-21509.13;;;13.63;50.74
7337;BME280;54510;42.016;23.098;2022-12-18T13:32:16;-21509.53;;;13.65;50.35
7337;BME280;54510;42.016;23.098;2022-12-18T13:34:43;-21513.25;;;13.78;49.08
7337;BME280;54510;42.016;23.098;2022-12-18T13:39:53;-21509.13;;;13.63;48.45
7337;BME280;54510;42.016;23.098;2022-12-18T13:45:07;-21491.13;;;12.97;50.06
7337;BME280;54510;42.016;23.098;2022-12-18T13:47:47;-21495.56;;;13.14;49.47
7337;BME280;54510;42.016;23.098;2022-12-18T13:50:23;-21497.09;;;13.19;49.10
7337;BME280;54510;42.016;23.098;2022-12-18T13:52:49;-21486.56;;;12.81;49.63
7337;BME280;54510;42.016;23.098;2022-12-18T13:55:16;-21490.84;;;12.96;49.30
7337;BME280;54510;42.016;23.098;2022-12-18T13:57:43;-21488.09;;;12.86;49.49
7337;BME280;54510;42.016;23.098;2022-12-18T14:02:53;-21482.28;;;12.65;49.54
7337;BME280;54510;42.016;23.098;2022-12-18T14:05:22;-21495.84;;;13.15;49.28
7337;BME280;54510;42.016;23.098;2022-12-18T14:07:48;-21494.72;;;13.11;48.82
7337;BME280;54510;42.016;23.098;2022-12-18T14:10:13;-21492.94;;;13.04;49.07
7337;BME280;54510;42.016;23.098;2022-12-18T14:12:40;-21490.44;;;12.95;49.52
7337;BME280;54510;42.016;23.098;2022-12-18T14:17:51;-21482.53;;;12.66;50.02
7337;BME280;54510;42.016;23.098;2022-12-18T14:20:17;-21492.66;;;13.03;48.59
7337;BME280;54510;42.016;23.098;2022-12-18T14:22:43;-21482.81;;;12.67;48.03